Time;durP1;ratioP1;P1;durP2;ratioP2;P2;SDS_P1;SDS_P2;PMS_P1;PMS_P2;Temp;Humidity;BMP_temperature;BMP_pressure;BME280_temperature;BME280_humidity;BME280_pressure;Samples;Min_cycle;Max_cycle;Signal;HPM_P1;HPM_P2
2022/10/03 00:01:08;;;;;;;8.55;2.20;;;;;;;;;;6157912;23;20546;-80
2022/10/03 00:03:46;;;;;;;10.77;2.90;;;;;;;;;;6132313;23;20030;-80
2022/10/03 00:06:14;;;;;;;9.88;2.47;;;;;;;;;;6157640;23;20025;-80
2022/10/03 00:08:59;;;;;;;9.35;2.55;;;;;;;;;;6185562;23;20041;-80
2022/10/03 00:11:31;;;;;;;7.90;1.90;;;;;;;;;;6186347;23;20026;-81
2022/10/03 00:14:00;;;;;;;11.95;3.17;;;;;;;;;;6187210;23;20036;-80
2022/10/03 00:16:35;;;;;;;10.27;2.50;;;;;;;;;;6185755;23;20025;-81
2022/10/03 00:19:11;;;;;;;6.05;2.13;;;;;;;;;;6184970;23;20080;-80
2022/10/03 00:21:45;;;;;;;8.93;2.45;;;;;;;;;;6186837;23;20068;-80
2022/10/03 00:24:24;;;;;;;10.45;2.50;;;;;;;;;;6186640;23;20041;-80
2022/10/03 00:26:50;;;;;;;8.77;2.30;;;;;;;;;;6185734;23;20026;-79
2022/10/03 00:29:17;;;;;;;10.50;2.50;;;;;;;;;;6185139;23;20033;-79
2022/10/03 00:31:52;;;;;;;7.00;2.17;;;;;;;;;;6186004;23;20084;-79
2022/10/03 00:34:21;;;;;;;6.38;1.70;;;;;;;;;;6185622;23;20072;-79
2022/10/03 00:36:57;;;;;;;8.10;2.17;;;;;;;;;;6185528;23;20057;-79
2022/10/03 00:39:26;;;;;;;14.55;2.33;;;;;;;;;;6185892;23;20013;-79
2022/10/03 00:42:06;;;;;;;9.60;2.67;;;;;;;;;;6186555;23;20021;-79
2022/10/03 00:44:38;;;;;;;8.65;2.40;;;;;;;;;;6186103;23;20461;-80
2022/10/03 00:47:10;;;;;;;8.48;2.33;;;;;;;;;;6185996;23;20426;-80
2022/10/03 00:49:52;;;;;;;11.13;2.03;;;;;;;;;;6184502;23;20029;-80
2022/10/03 00:52:21;;;;;;;8.93;2.10;;;;;;;;;;6188809;23;20344;-80
2022/10/03 00:55:06;;;;;;;9.82;2.28;;;;;;;;;;6186975;23;20036;-79
2022/10/03 00:57:51;;;;;;;7.15;2.13;;;;;;;;;;6187903;23;20036;-79
2022/10/03 01:00:19;;;;;;;8.23;2.10;;;;;;;;;;6187437;23;20080;-80
2022/10/03 01:02:48;;;;;;;10.60;2.30;;;;;;;;;;6184772;23;20107;-80
2022/10/03 01:05:15;;;;;;;7.72;2.53;;;;;;;;;;6180570;23;20049;-79
2022/10/03 01:08:00;;;;;;;6.25;2.10;;;;;;;;;;6156483;23;20029;-80
2022/10/03 01:10:34;;;;;;;10.27;2.15;;;;;;;;;;6129524;23;20537;-79
2022/10/03 01:13:09;;;;;;;12.25;2.70;;;;;;;;;;6131926;23;20928;-79
2022/10/03 01:15:42;;;;;;;11.13;1.98;;;;;;;;;;6134000;23;20022;-79
2022/10/03 01:18:23;;;;;;;9.65;2.00;;;;;;;;;;6157169;23;20030;-79
2022/10/03 01:20:57;;;;;;;7.53;2.13;;;;;;;;;;6132040;23;20061;-79
2022/10/03 01:23:42;;;;;;;6.05;1.63;;;;;;;;;;6132293;23;20025;-79
2022/10/03 01:26:21;;;;;;;6.97;1.98;;;;;;;;;;6131845;23;20026;-79
2022/10/03 01:32:03;;;;;;;12.80;2.67;;;;;;;;;;6157899;23;20029;-79
2022/10/03 01:34:41;;;;;;;6.85;1.98;;;;;;;;;;6152409;23;20037;-79
2022/10/03 01:37:10;;;;;;;9.95;2.22;;;;;;;;;;6130939;23;20026;-79
2022/10/03 01:39:49;;;;;;;13.57;2.50;;;;;;;;;;6156802;23;20041;-79
2022/10/03 01:42:18;;;;;;;8.30;1.90;;;;;;;;;;6130866;23;20033;-79
2022/10/03 01:44:57;;;;;;;6.50;1.77;;;;;;;;;;6157647;23;20081;-80
2022/10/03 01:47:33;;;;;;;9.23;2.05;;;;;;;;;;6155783;23;20010;-79
2022/10/03 01:50:06;;;;;;;6.70;1.75;;;;;;;;;;6131648;23;20033;-79
2022/10/03 01:52:51;;;;;;;6.35;2.38;;;;;;;;;;6132246;23;20021;-79
2022/10/03 01:55:30;;;;;;;6.40;2.03;;;;;;;;;;6132744;23;20037;-79
2022/10/03 01:58:02;;;;;;;7.60;2.10;;;;;;;;;;6131406;23;20471;-79
2022/10/03 02:00:33;;;;;;;9.90;2.15;;;;;;;;;;6156681;23;20030;-79
2022/10/03 02:03:05;;;;;;;8.25;2.42;;;;;;;;;;6132368;23;20026;-79
2022/10/03 02:05:47;;;;;;;6.40;1.73;;;;;;;;;;6141686;23;20029;-79
2022/10/03 02:08:32;;;;;;;8.13;1.90;;;;;;;;;;6185478;23;20033;-78
2022/10/03 02:10:59;;;;;;;9.05;1.80;;;;;;;;;;6186316;23;20032;-78
2022/10/03 02:13:35;;;;;;;10.00;2.00;;;;;;;;;;6187138;23;20025;-78
2022/10/03 02:16:26;;;;;;;7.03;1.75;;;;;;;;;;6185011;23;20557;-79
2022/10/03 02:18:53;;;;;;;;;;;;;;;;;;6188982;23;20021;-79
2022/10/03 02:21:20;;;;;;;7.32;1.90;;;;;;;;;;6186257;23;47112;-79
2022/10/03 02:23:48;;;;;;;6.93;2.00;;;;;;;;;;6187094;23;20036;-79
2022/10/03 02:26:20;;;;;;;9.52;2.20;;;;;;;;;;6186789;23;20014;-79
2022/10/03 02:28:57;;;;;;;8.85;1.58;;;;;;;;;;6185249;23;20009;-79
2022/10/03 02:31:42;;;;;;;7.68;2.00;;;;;;;;;;6186277;23;20048;-79
2022/10/03 02:34:28;;;;;;;7.65;1.80;;;;;;;;;;6186518;23;20017;-79
2022/10/03 02:37:13;;;;;;;6.38;2.08;;;;;;;;;;6187463;23;20077;-79
2022/10/03 02:39:59;;;;;;;7.85;1.90;;;;;;;;;;6185647;23;20037;-79
2022/10/03 02:42:25;;;;;;;5.40;1.45;;;;;;;;;;6184771;23;20487;-78
2022/10/03 02:45:04;;;;;;;9.15;2.15;;;;;;;;;;6184521;23;20029;-79
2022/10/03 02:47:30;;;;;;;8.07;1.63;;;;;;;;;;6187842;23;20038;-79
2022/10/03 02:49:59;;;;;;;5.55;1.80;;;;;;;;;;6186975;23;20041;-79
2022/10/03 02:52:43;;;;;;;5.35;1.70;;;;;;;;;;6188118;23;20029;-79
2022/10/03 02:55:26;;;;;;;5.05;1.27;;;;;;;;;;6187900;23;20014;-78
2022/10/03 02:58:10;;;;;;;5.57;1.58;;;;;;;;;;6185725;23;20502;-79
2022/10/03 03:00:56;;;;;;;4.20;1.45;;;;;;;;;;6186040;23;20056;-80
2022/10/03 03:03:46;;;;;;;3.78;1.20;;;;;;;;;;6141211;23;20030;-80
2022/10/03 03:06:21;;;;;;;5.35;1.40;;;;;;;;;;6171264;23;20029;-79
2022/10/03 03:09:06;;;;;;;5.32;1.30;;;;;;;;;;6157754;23;20018;-79
2022/10/03 03:11:43;;;;;;;7.00;1.30;;;;;;;;;;6158324;23;20034;-79
2022/10/03 03:14:15;;;;;;;5.30;1.30;;;;;;;;;;6158295;23;20026;-79
2022/10/03 03:16:59;;;;;;;5.70;1.50;;;;;;;;;;6131757;23;20483;-79
2022/10/03 03:19:46;;;;;;;8.93;1.70;;;;;;;;;;6132431;23;20034;-79
2022/10/03 03:22:15;;;;;;;4.65;1.30;;;;;;;;;;6132836;23;20026;-79
2022/10/03 03:24:41;;;;;;;5.07;1.15;;;;;;;;;;6131445;23;20496;-79
2022/10/03 03:27:07;;;;;;;4.70;1.48;;;;;;;;;;6131992;23;20033;-79
2022/10/03 03:29:34;;;;;;;3.85;1.08;;;;;;;;;;6131464;23;20037;-79
2022/10/03 03:32:06;;;;;;;5.85;1.20;;;;;;;;;;6156610;23;20038;-80
2022/10/03 03:34:41;;;;;;;7.45;1.50;;;;;;;;;;6129731;23;20415;-80
2022/10/03 03:37:16;;;;;;;6.20;1.33;;;;;;;;;;6129439;23;20030;-79
2022/10/03 03:39:50;;;;;;;6.03;1.20;;;;;;;;;;6154665;23;20014;-79
2022/10/03 03:42:21;;;;;;;4.88;1.60;;;;;;;;;;6155514;23;20029;-80
2022/10/03 03:44:57;;;;;;;4.40;1.20;;;;;;;;;;6129035;23;20033;-80
2022/10/03 03:47:36;;;;;;;9.43;1.65;;;;;;;;;;6155225;23;20056;-80
2022/10/03 03:50:21;;;;;;;7.38;1.40;;;;;;;;;;6155287;23;20522;-80
2022/10/03 03:53:05;;;;;;;5.32;1.33;;;;;;;;;;6130848;23;20025;-79
2022/10/03 03:55:34;;;;;;;7.45;1.63;;;;;;;;;;6156777;23;20038;-79
2022/10/03 03:58:04;;;;;;;8.73;1.70;;;;;;;;;;6131648;23;20494;-79
2022/10/03 04:00:54;;;;;;;7.93;1.63;;;;;;;;;;6131659;23;20479;-79
2022/10/03 04:03:39;;;;;;;6.05;1.75;;;;;;;;;;6131941;23;20472;-79
2022/10/03 04:06:21;;;;;;;11.70;1.70;;;;;;;;;;6157649;23;20030;-79
2022/10/03 04:08:47;;;;;;;5.05;1.40;;;;;;;;;;6157645;23;20535;-79
2022/10/03 04:11:29;;;;;;;7.82;1.48;;;;;;;;;;6156763;23;20026;-79
2022/10/03 04:13:55;;;;;;;5.20;1.70;;;;;;;;;;6157471;23;20479;-79
2022/10/03 04:19:48;;;;;;;5.63;1.75;;;;;;;;;;6102856;23;20018;-78
2022/10/03 04:22:34;;;;;;;8.50;1.80;;;;;;;;;;6131533;23;20485;-79
2022/10/03 04:25:09;;;;;;;5.95;1.85;;;;;;;;;;6130329;23;20026;-79
2022/10/03 04:27:36;;;;;;;7.05;1.98;;;;;;;;;;6131029;23;20026;-79
2022/10/03 04:30:14;;;;;;;7.40;1.83;;;;;;;;;;6155574;23;20041;-81
2022/10/03 04:32:59;;;;;;;6.63;1.60;;;;;;;;;;6154709;23;20026;-80
2022/10/03 04:35:44;;;;;;;11.05;2.10;;;;;;;;;;6129978;23;20030;-81
2022/10/03 04:38:20;;;;;;;8.23;1.90;;;;;;;;;;6156171;23;20037;-81
2022/10/03 04:40:49;;;;;;;7.55;1.70;;;;;;;;;;6156013;23;20018;-81
2022/10/03 04:43:28;;;;;;;6.43;1.83;;;;;;;;;;6157462;23;20034;-80
2022/10/03 04:46:13;;;;;;;7.70;2.20;;;;;;;;;;6155475;23;20817;-81
2022/10/03 04:49:01;;;;;;;10.80;3.05;;;;;;;;;;6130057;23;20105;-80
2022/10/03 04:51:27;;;;;;;10.93;4.97;;;;;;;;;;6129571;23;20030;-80
2022/10/03 04:53:57;;;;;;;12.48;4.55;;;;;;;;;;6129772;23;20032;-80
2022/10/03 04:56:42;;;;;;;13.23;4.45;;;;;;;;;;6130760;23;20922;-79
2022/10/03 04:59:24;;;;;;;10.98;3.35;;;;;;;;;;6129637;23;20065;-80
2022/10/03 05:02:02;;;;;;;10.10;3.50;;;;;;;;;;6155154;23;20116;-79
2022/10/03 05:04:31;;;;;;;8.73;2.72;;;;;;;;;;6128984;23;20030;-79
2022/10/03 05:07:03;;;;;;;7.30;2.88;;;;;;;;;;6175342;23;20029;-79
2022/10/03 05:09:31;;;;;;;5.50;2.78;;;;;;;;;;6185078;23;20084;-79
2022/10/03 05:12:16;;;;;;;8.90;2.63;;;;;;;;;;6183809;23;20032;-79
2022/10/03 05:15:01;;;;;;;8.27;2.72;;;;;;;;;;6184204;23;20064;-79
2022/10/03 05:17:39;;;;;;;11.82;2.63;;;;;;;;;;6184494;23;20021;-79
2022/10/03 05:20:22;;;;;;;6.65;2.38;;;;;;;;;;6183190;23;20030;-77
2022/10/03 05:23:04;;;;;;;8.15;3.10;;;;;;;;;;6181672;23;20026;-77
2022/10/03 05:25:40;;;;;;;6.85;2.65;;;;;;;;;;6184695;23;20026;-77
2022/10/03 05:28:25;;;;;;;10.05;2.83;;;;;;;;;;6185983;23;20010;-79
2022/10/03 05:31:06;;;;;;;10.20;3.03;;;;;;;;;;6183929;23;20100;-79
2022/10/03 05:33:45;;;;;;;10.23;2.10;;;;;;;;;;6184343;23;20029;-79
2022/10/03 05:36:18;;;;;;;7.38;2.13;;;;;;;;;;6183865;23;20084;-79
2022/10/03 05:39:03;;;;;;;8.73;2.05;;;;;;;;;;6183800;23;20029;-78
2022/10/03 05:41:31;;;;;;;10.10;2.40;;;;;;;;;;6184053;23;20029;-78
2022/10/03 05:44:00;;;;;;;6.07;2.20;;;;;;;;;;6183615;23;20025;-79
2022/10/03 05:46:39;;;;;;;6.63;2.20;;;;;;;;;;6183731;23;20036;-79
2022/10/03 05:49:17;;;;;;;7.65;3.10;;;;;;;;;;6183472;23;20036;-79
2022/10/03 05:51:49;;;;;;;19.02;6.45;;;;;;;;;;6184930;23;20438;-78
2022/10/03 05:54:34;;;;;;;15.18;5.97;;;;;;;;;;6185789;23;20482;-77
2022/10/03 05:57:19;;;;;;;11.15;4.43;;;;;;;;;;6185594;23;20026;-77
2022/10/03 06:00:07;;;;;;;10.43;4.03;;;;;;;;;;6182065;23;20025;-77
2022/10/03 06:02:53;;;;;;;11.27;4.10;;;;;;;;;;6186742;23;20037;-78
2022/10/03 06:05:30;;;;;;;8.77;3.63;;;;;;;;;;6186141;23;20419;-77
2022/10/03 06:07:57;;;;;;;10.35;3.45;;;;;;;;;;6187940;23;20017;-78
2022/10/03 06:10:32;;;;;;;11.80;3.90;;;;;;;;;;6188338;23;20033;-78
2022/10/03 06:12:59;;;;;;;11.48;3.95;;;;;;;;;;6190853;23;20045;-77
2022/10/03 06:15:44;;;;;;;12.63;4.32;;;;;;;;;;6162852;23;20029;-77
2022/10/03 06:18:30;;;;;;;9.05;3.88;;;;;;;;;;6189238;23;20108;-78
2022/10/03 06:20:56;;;;;;;11.30;3.78;;;;;;;;;;6164208;23;20029;-78
2022/10/03 06:23:37;;;;;;;10.45;4.00;;;;;;;;;;6189818;23;20034;-78
2022/10/03 06:26:22;;;;;;;9.95;3.97;;;;;;;;;;6189891;23;21189;-77
2022/10/03 06:28:50;;;;;;;11.55;4.10;;;;;;;;;;6161607;23;20029;-78
2022/10/03 06:31:42;;;;;;;8.55;3.90;;;;;;;;;;6160162;23;20081;-78
2022/10/03 06:34:28;;;;;;;8.82;3.55;;;;;;;;;;6160960;23;20033;-78
2022/10/03 06:36:55;;;;;;;9.55;4.18;;;;;;;;;;6159623;23;20030;-79
2022/10/03 06:39:21;;;;;;;8.40;3.50;;;;;;;;;;6187374;23;20037;-78
2022/10/03 06:42:06;;;;;;;8.10;3.15;;;;;;;;;;6189570;23;20028;-78
2022/10/03 06:44:40;;;;;;;9.25;3.58;;;;;;;;;;6190519;23;20577;-78
2022/10/03 06:47:17;;;;;;;7.90;3.55;;;;;;;;;;6162719;23;20400;-78
2022/10/03 06:49:52;;;;;;;12.57;4.40;;;;;;;;;;6161943;23;20049;-78
2022/10/03 06:52:27;;;;;;;9.55;4.20;;;;;;;;;;6187328;23;20034;-78
2022/10/03 06:55:11;;;;;;;9.30;3.95;;;;;;;;;;6189208;23;20104;-77
2022/10/03 06:57:53;;;;;;;9.20;3.75;;;;;;;;;;6162185;23;20031;-77
2022/10/03 07:00:20;;;;;;;9.95;4.05;;;;;;;;;;6163362;23;20483;-78
2022/10/03 07:03:20;;;;;;;9.95;4.05;;;;;;;;;;6186755;23;20018;-78
2022/10/03 07:05:46;;;;;;;14.45;4.57;;;;;;;;;;6117674;23;20065;-79
2022/10/03 07:08:31;;;;;;;10.73;4.20;;;;;;;;;;6184597;23;20102;-79
2022/10/03 07:11:01;;;;;;;13.25;4.40;;;;;;;;;;6187421;23;20030;-79
2022/10/03 07:13:38;;;;;;;15.38;4.47;;;;;;;;;;6183013;23;20033;-78
2022/10/03 07:16:22;;;;;;;12.68;5.22;;;;;;;;;;6183328;23;20952;-78
2022/10/03 07:19:05;;;;;;;11.00;3.80;;;;;;;;;;6185463;23;20560;-79
2022/10/03 07:21:31;;;;;;;13.07;4.90;;;;;;;;;;6184918;23;20025;-80
2022/10/03 07:24:18;;;;;;;10.73;4.30;;;;;;;;;;6184802;23;20030;-80
2022/10/03 07:26:53;;;;;;;16.75;5.43;;;;;;;;;;6185444;23;20081;-80
2022/10/03 07:29:33;;;;;;;13.20;4.50;;;;;;;;;;6187223;23;20037;-79
2022/10/03 07:32:00;;;;;;;14.75;5.07;;;;;;;;;;6187504;23;20022;-79
2022/10/03 07:34:45;;;;;;;11.85;3.85;;;;;;;;;;6184641;23;20036;-81
2022/10/03 07:40:15;;;;;;;11.70;3.80;;;;;;;;;;6188171;23;20025;-80
2022/10/03 07:42:53;;;;;;;11.82;4.15;;;;;;;;;;6185244;23;20036;-80
2022/10/03 07:45:33;;;;;;;9.35;3.55;;;;;;;;;;6185455;23;20036;-80
2022/10/03 07:48:18;;;;;;;12.82;3.45;;;;;;;;;;6187006;23;20036;-80
2022/10/03 07:50:49;;;;;;;15.38;4.03;;;;;;;;;;6186464;23;20026;-79
2022/10/03 07:53:15;;;;;;;;;;;;;;;;;;6189155;23;20033;-80
2022/10/03 07:55:44;;;;;;;11.05;3.30;;;;;;;;;;6186983;23;47562;-81
2022/10/03 07:58:20;;;;;;;11.75;3.33;;;;;;;;;;6189429;23;20021;-79
2022/10/03 08:00:55;;;;;;;10.02;3.00;;;;;;;;;;6187319;23;20017;-81
2022/10/03 08:03:42;;;;;;;8.65;3.30;;;;;;;;;;6187605;23;20025;-81
2022/10/03 08:06:13;;;;;;;11.18;3.70;;;;;;;;;;6186894;23;21355;-80
2022/10/03 08:08:49;;;;;;;13.88;4.05;;;;;;;;;;6187397;23;20021;-80
2022/10/03 08:11:34;;;;;;;12.45;3.70;;;;;;;;;;6186100;23;20638;-80
2022/10/03 08:14:19;;;;;;;11.40;3.28;;;;;;;;;;6189736;23;20033;-80
2022/10/03 08:16:48;;;;;;;7.75;2.70;;;;;;;;;;6185780;23;20053;-80
2022/10/03 08:19:14;;;;;;;11.10;3.05;;;;;;;;;;6185304;23;20068;-80
2022/10/03 08:21:56;;;;;;;11.90;2.72;;;;;;;;;;6183606;23;20032;-80
2022/10/03 08:24:31;;;;;;;13.13;3.42;;;;;;;;;;6184472;23;20041;-80
2022/10/03 08:27:24;;;;;;;8.45;3.00;;;;;;;;;;6183370;23;20088;-81
2022/10/03 08:30:09;;;;;;;7.22;3.33;;;;;;;;;;6149341;23;20022;-81
2022/10/03 08:32:55;;;;;;;13.32;3.05;;;;;;;;;;6183315;23;20426;-80
2022/10/03 08:35:40;;;;;;;11.05;3.05;;;;;;;;;;6185482;23;20041;-81
2022/10/03 08:38:07;;;;;;;7.38;2.80;;;;;;;;;;6183254;23;20033;-80
2022/10/03 08:40:55;;;;;;;7.95;2.45;;;;;;;;;;6185478;23;20021;-80
2022/10/03 08:43:24;;;;;;;10.35;2.55;;;;;;;;;;6184449;23;20025;-81
2022/10/03 08:46:14;;;;;;;8.32;2.38;;;;;;;;;;6184465;23;20018;-81
2022/10/03 08:49:13;;;;;;;10.65;2.20;;;;;;;;;;6141858;23;20844;-80
2022/10/03 08:51:42;;;;;;;10.00;2.20;;;;;;;;;;6133335;23;20022;-81
2022/10/03 08:54:35;;;;;;;8.60;2.40;;;;;;;;;;6184397;23;20029;-81
2022/10/03 08:57:06;;;;;;;10.18;2.13;;;;;;;;;;6148860;23;20025;-82
2022/10/03 08:59:56;;;;;;;9.30;1.90;;;;;;;;;;6185732;23;20033;-81
2022/10/03 09:02:41;;;;;;;13.43;2.40;;;;;;;;;;6183352;23;20025;-81
2022/10/03 09:05:26;;;;;;;9.18;1.80;;;;;;;;;;6180831;23;20520;-83
2022/10/03 09:08:08;;;;;;;5.80;1.65;;;;;;;;;;6128918;23;20037;-83
2022/10/03 09:11:00;;;;;;;12.73;2.00;;;;;;;;;;6128830;23;20044;-82
2022/10/03 09:13:30;;;;;;;5.95;1.33;;;;;;;;;;6129413;23;20096;-81
2022/10/03 09:16:17;;;;;;;9.15;1.63;;;;;;;;;;6129013;23;20029;-83
2022/10/03 09:18:53;;;;;;;10.18;2.17;;;;;;;;;;6130127;23;20022;-83
2022/10/03 09:21:29;;;;;;;11.70;1.60;;;;;;;;;;6130687;23;20490;-82
2022/10/03 09:24:20;;;;;;;10.32;1.52;;;;;;;;;;6131817;23;20081;-83
2022/10/03 09:27:02;;;;;;;7.45;1.90;;;;;;;;;;6157378;23;20029;-82
2022/10/03 09:29:36;;;;;;;7.30;1.63;;;;;;;;;;6131291;23;20856;-84
2022/10/03 09:32:17;;;;;;;10.82;1.60;;;;;;;;;;6156680;23;20022;-83
2022/10/03 09:35:02;;;;;;;9.25;1.77;;;;;;;;;;6129987;23;20030;-83
2022/10/03 09:37:32;;;;;;;8.82;1.90;;;;;;;;;;6132694;23;20010;-83
2022/10/03 09:40:14;;;;;;;8.68;1.80;;;;;;;;;;6132444;23;20018;-84
2022/10/03 09:42:55;;;;;;;10.05;1.90;;;;;;;;;;6132993;23;20030;-85
2022/10/03 09:45:40;;;;;;;12.10;1.83;;;;;;;;;;6132840;23;20034;-84
2022/10/03 09:48:16;;;;;;;5.65;1.70;;;;;;;;;;6158365;23;20030;-82
2022/10/03 09:50:54;;;;;;;11.23;1.73;;;;;;;;;;6130502;23;20449;-83
2022/10/03 09:53:36;;;;;;;9.13;1.90;;;;;;;;;;6129140;23;20036;-82
2022/10/03 09:56:09;;;;;;;6.60;1.70;;;;;;;;;;6129115;23;20034;-84
2022/10/03 09:58:38;;;;;;;6.03;1.50;;;;;;;;;;6155902;23;20034;-83
2022/10/03 10:01:23;;;;;;;5.97;1.20;;;;;;;;;;6157252;23;20093;-85
2022/10/03 10:04:05;;;;;;;4.93;1.45;;;;;;;;;;6133325;23;20026;-84
2022/10/03 10:06:51;;;;;;;7.18;1.48;;;;;;;;;;6165923;23;20578;-84
2022/10/03 10:09:24;;;;;;;7.65;1.60;;;;;;;;;;6139563;23;20030;-80
2022/10/03 10:12:14;;;;;;;9.95;1.50;;;;;;;;;;6187146;23;20474;-82
2022/10/03 10:14:55;;;;;;;8.73;1.45;;;;;;;;;;6187414;23;20060;-82
2022/10/03 10:17:21;;;;;;;5.43;1.40;;;;;;;;;;6185930;23;20018;-80
2022/10/03 10:20:08;;;;;;;7.30;1.40;;;;;;;;;;6195359;23;20021;-80
2022/10/03 10:22:35;;;;;;;6.88;1.40;;;;;;;;;;6181098;23;20021;-80
2022/10/03 10:25:05;;;;;;;7.60;1.60;;;;;;;;;;6192153;23;20022;-79
2022/10/03 10:27:37;;;;;;;6.03;1.40;;;;;;;;;;6190073;23;20014;-82
2022/10/03 10:30:10;;;;;;;10.13;1.50;;;;;;;;;;6190767;23;20018;-80
2022/10/03 10:32:55;;;;;;;10.68;1.60;;;;;;;;;;6193062;23;20022;-82
2022/10/03 10:35:28;;;;;;;9.30;1.42;;;;;;;;;;6195938;23;20069;-84
2022/10/03 10:37:54;;;;;;;4.97;1.25;;;;;;;;;;6197580;23;20017;-81
2022/10/03 10:40:42;;;;;;;7.57;1.52;;;;;;;;;;6196999;23;20033;-86
2022/10/03 10:43:23;;;;;;;7.70;1.55;;;;;;;;;;6197447;23;20077;-81
2022/10/03 10:45:49;;;;;;;;;;;;;;;;;;6194350;23;20020;-81
2022/10/03 10:48:15;;;;;;;7.78;1.20;;;;;;;;;;6191539;23;48365;-81
2022/10/03 10:51:07;;;;;;;6.32;1.20;;;;;;;;;;6191953;23;20028;-83
2022/10/03 10:53:36;;;;;;;8.63;1.25;;;;;;;;;;6195236;23;20029;-84
2022/10/03 10:56:26;;;;;;;7.80;1.42;;;;;;;;;;6192305;23;20033;-81
2022/10/03 10:58:56;;;;;;;7.75;1.20;;;;;;;;;;6190755;23;20460;-85
2022/10/03 11:01:26;;;;;;;7.28;1.40;;;;;;;;;;6189074;23;20026;-82
2022/10/03 11:04:11;;;;;;;6.97;1.38;;;;;;;;;;6190759;23;20033;-81
2022/10/03 11:07:02;;;;;;;7.32;1.38;;;;;;;;;;6191920;23;20068;-84
2022/10/03 11:09:52;;;;;;;6.05;1.45;;;;;;;;;;6189599;23;20025;-80
2022/10/03 11:12:21;;;;;;;7.93;1.52;;;;;;;;;;6189175;23;20025;-84
2022/10/03 11:15:06;;;;;;;6.55;1.52;;;;;;;;;;6185130;23;20177;-83
2022/10/03 11:17:51;;;;;;;9.85;1.98;;;;;;;;;;6188170;23;20022;-84
2022/10/03 11:20:17;;;;;;;8.68;1.83;;;;;;;;;;6187699;23;20081;-84
2022/10/03 11:22:56;;;;;;;8.82;1.40;;;;;;;;;;6186559;23;20029;-80
2022/10/03 11:25:45;;;;;;;5.53;1.20;;;;;;;;;;6187584;23;20048;-80
2022/10/03 11:28:31;;;;;;;4.63;1.30;;;;;;;;;;6187580;23;20010;-81
2022/10/03 11:31:03;;;;;;;5.65;1.25;;;;;;;;;;6189552;23;20068;-80
2022/10/03 11:33:40;;;;;;;5.75;1.10;;;;;;;;;;6193788;23;20022;-81
2022/10/03 11:36:26;;;;;;;5.30;1.20;;;;;;;;;;6194789;23;20031;-81
2022/10/03 11:39:05;;;;;;;9.45;1.48;;;;;;;;;;6191329;23;20036;-79
2022/10/03 11:41:54;;;;;;;7.88;1.00;;;;;;;;;;6189160;23;20033;-82
2022/10/03 11:44:24;;;;;;;10.43;1.52;;;;;;;;;;6191631;23;20112;-82
2022/10/03 11:46:54;;;;;;;9.50;1.50;;;;;;;;;;6190468;23;20027;-85
2022/10/03 11:49:29;;;;;;;8.52;1.27;;;;;;;;;;6190618;23;20033;-81
2022/10/03 11:52:05;;;;;;;4.78;1.10;;;;;;;;;;6185717;23;20037;-82
2022/10/03 11:54:34;;;;;;;7.60;1.42;;;;;;;;;;6184495;23;20939;-80
2022/10/03 11:57:36;;;;;;;7.43;1.48;;;;;;;;;;6184471;23;20033;-83
2022/10/03 12:00:02;;;;;;;7.90;1.45;;;;;;;;;;6093604;23;20498;-83
2022/10/03 12:02:29;;;;;;;7.60;1.33;;;;;;;;;;6167901;23;20036;-83
2022/10/03 12:04:57;;;;;;;10.07;1.52;;;;;;;;;;6183886;23;20028;-83
2022/10/03 12:10:27;;;;;;;8.07;1.50;;;;;;;;;;6156555;23;20073;-80
2022/10/03 12:12:54;;;;;;;9.10;1.42;;;;;;;;;;6131056;23;20081;-82
2022/10/03 12:15:33;;;;;;;11.13;1.85;;;;;;;;;;6157145;23;20033;-81
2022/10/03 12:18:06;;;;;;;7.63;1.50;;;;;;;;;;6129427;23;20033;-83
2022/10/03 12:20:42;;;;;;;10.07;2.15;;;;;;;;;;6129600;23;20029;-81
2022/10/03 12:23:24;;;;;;;7.85;1.60;;;;;;;;;;6130530;23;20097;-82
2022/10/03 12:25:51;;;;;;;9.02;1.90;;;;;;;;;;6132108;23;20022;-84
2022/10/03 12:28:28;;;;;;;10.05;1.95;;;;;;;;;;6130518;23;20109;-83
2022/10/03 12:30:59;;;;;;;5.47;1.63;;;;;;;;;;6131569;23;20471;-83
2022/10/03 12:33:32;;;;;;;8.48;1.50;;;;;;;;;;6129918;23;20065;-82
2022/10/03 12:36:03;;;;;;;6.45;1.45;;;;;;;;;;6128149;23;20026;-82
2022/10/03 12:38:48;;;;;;;6.63;1.30;;;;;;;;;;6155520;23;20037;-83
2022/10/03 12:41:31;;;;;;;9.27;1.33;;;;;;;;;;6155391;23;20017;-82
2022/10/03 12:44:18;;;;;;;12.02;2.15;;;;;;;;;;6131325;23;20526;-81
2022/10/03 12:46:44;;;;;;;7.35;1.30;;;;;;;;;;6155809;23;20082;-84
2022/10/03 12:49:31;;;;;;;7.80;1.80;;;;;;;;;;6129483;23;20041;-80
2022/10/03 12:51:59;;;;;;;6.95;1.30;;;;;;;;;;6111085;23;20025;-81
2022/10/03 12:54:45;;;;;;;7.07;1.73;;;;;;;;;;6125405;23;20034;-84
2022/10/03 12:57:14;;;;;;;9.63;1.60;;;;;;;;;;6128963;23;20026;-84
2022/10/03 12:59:53;;;;;;;7.65;1.55;;;;;;;;;;6128314;23;20033;-81
2022/10/03 13:02:26;;;;;;;6.78;1.73;;;;;;;;;;6126324;23;20041;-82
2022/10/03 13:05:12;;;;;;;6.78;1.30;;;;;;;;;;6125811;23;20517;-81
2022/10/03 13:07:51;;;;;;;8.55;1.73;;;;;;;;;;6151177;23;20022;-81
2022/10/03 13:10:36;;;;;;;12.40;1.70;;;;;;;;;;6154125;23;21337;-84
2022/10/03 13:13:05;;;;;;;8.13;1.50;;;;;;;;;;6151614;23;20037;-84
2022/10/03 13:15:41;;;;;;;6.43;1.40;;;;;;;;;;6150844;23;20026;-82
2022/10/03 13:18:26;;;;;;;10.15;1.45;;;;;;;;;;6151648;23;20518;-83
2022/10/03 13:20:52;;;;;;;6.97;1.67;;;;;;;;;;6154877;23;20026;-83
2022/10/03 13:23:18;;;;;;;10.60;1.52;;;;;;;;;;6152484;23;20026;-83
2022/10/03 13:25:54;;;;;;;9.60;1.50;;;;;;;;;;6155847;23;20026;-84
2022/10/03 13:28:36;;;;;;;7.95;1.55;;;;;;;;;;6155562;23;20036;-83
2022/10/03 13:31:12;;;;;;;6.85;1.65;;;;;;;;;;6157610;23;20078;-86
2022/10/03 13:33:50;;;;;;;10.68;1.70;;;;;;;;;;6159400;23;20026;-85
2022/10/03 13:36:20;;;;;;;7.65;1.85;;;;;;;;;;6158169;23;20026;-83
2022/10/03 13:38:50;;;;;;;9.52;1.80;;;;;;;;;;6162332;23;20029;-82
2022/10/03 13:41:35;;;;;;;9.15;1.85;;;;;;;;;;6159461;23;20032;-81
2022/10/03 13:44:03;;;;;;;9.85;1.63;;;;;;;;;;6158298;23;20014;-86
2022/10/03 13:46:30;;;;;;;7.90;1.63;;;;;;;;;;6157453;23;20018;-83
2022/10/03 13:49:00;;;;;;;8.93;1.60;;;;;;;;;;6157746;23;20022;-86
2022/10/03 13:51:33;;;;;;;8.38;1.60;;;;;;;;;;6158978;23;20077;-86
2022/10/03 13:54:04;;;;;;;7.65;1.33;;;;;;;;;;6157371;23;20790;-86
2022/10/03 13:56:39;;;;;;;7.50;1.73;;;;;;;;;;6157934;23;20026;-82
2022/10/03 13:59:35;;;;;;;6.50;1.60;;;;;;;;;;6159798;23;20022;-86
2022/10/03 14:02:17;;;;;;;13.43;2.22;;;;;;;;;;6140211;23;20026;-81
2022/10/03 14:04:47;;;;;;;8.82;1.80;;;;;;;;;;6160413;23;20859;-87
2022/10/03 14:07:27;;;;;;;10.32;1.58;;;;;;;;;;6162443;23;20026;-82
2022/10/03 14:09:59;;;;;;;7.13;1.50;;;;;;;;;;6139533;23;20021;-82
2022/10/03 14:12:44;;;;;;;7.82;1.75;;;;;;;;;;6139229;23;20036;-81
2022/10/03 14:15:39;;;;;;;11.90;1.55;;;;;;;;;;6165360;23;20050;-81
2022/10/03 14:18:29;;;;;;;9.07;1.85;;;;;;;;;;6164550;23;20036;-82
2022/10/03 14:21:15;;;;;;;8.40;1.40;;;;;;;;;;6136845;23;20033;-81
2022/10/03 14:23:41;;;;;;;9.32;1.60;;;;;;;;;;6136073;23;20037;-80
2022/10/03 14:26:28;;;;;;;11.55;1.88;;;;;;;;;;6141120;23;20030;-80
2022/10/03 14:29:18;;;;;;;8.35;1.40;;;;;;;;;;6095012;23;20033;-82
2022/10/03 14:31:49;;;;;;;12.63;2.00;;;;;;;;;;6118477;23;20026;-81
2022/10/03 14:34:22;;;;;;;6.18;1.40;;;;;;;;;;6157108;23;20030;-82
2022/10/03 14:36:57;;;;;;;6.88;1.40;;;;;;;;;;6130677;23;20109;-81
2022/10/03 14:39:24;;;;;;;9.05;1.60;;;;;;;;;;6156239;23;20030;-81
2022/10/03 14:41:54;;;;;;;9.50;1.88;;;;;;;;;;6130720;23;20053;-82
2022/10/03 14:44:20;;;;;;;8.88;1.58;;;;;;;;;;6157385;23;20030;-83
2022/10/03 14:47:10;;;;;;;7.40;1.67;;;;;;;;;;6130757;23;20022;-82
2022/10/03 14:49:38;;;;;;;8.90;1.58;;;;;;;;;;6117049;23;20034;-83
2022/10/03 14:52:29;;;;;;;10.77;1.77;;;;;;;;;;6156146;23;20771;-82
2022/10/03 14:54:58;;;;;;;11.27;2.03;;;;;;;;;;6130446;23;20037;-83
2022/10/03 14:57:30;;;;;;;10.25;1.70;;;;;;;;;;6127847;23;20101;-81
2022/10/03 14:59:57;;;;;;;8.57;1.48;;;;;;;;;;6128752;23;20518;-82
2022/10/03 15:02:35;;;;;;;9.95;2.40;;;;;;;;;;6129008;23;20029;-80
2022/10/03 15:05:31;;;;;;;8.35;1.90;;;;;;;;;;6129072;23;20032;-82
2022/10/03 15:07:58;;;;;;;6.72;2.00;;;;;;;;;;6112930;23;20074;-82
2022/10/03 15:10:25;;;;;;;12.63;1.83;;;;;;;;;;6130105;23;20475;-82
2022/10/03 15:12:54;;;;;;;10.32;2.00;;;;;;;;;;6127337;23;20030;-82
2022/10/03 15:15:26;;;;;;;11.98;1.70;;;;;;;;;;6125617;23;20034;-83
2022/10/03 15:17:54;;;;;;;12.82;1.90;;;;;;;;;;6153256;23;20037;-82
2022/10/03 15:20:28;;;;;;;6.78;1.75;;;;;;;;;;6127848;23;20061;-83
2022/10/03 15:22:57;;;;;;;9.18;1.60;;;;;;;;;;6153559;23;20034;-83
2022/10/03 15:25:32;;;;;;;10.57;2.20;;;;;;;;;;6128264;23;20109;-83
2022/10/03 15:28:02;;;;;;;12.30;1.95;;;;;;;;;;6155350;23;20032;-83
2022/10/03 15:30:35;;;;;;;10.10;1.83;;;;;;;;;;6156272;23;20769;-82
2022/10/03 15:33:06;;;;;;;10.13;1.77;;;;;;;;;;6129289;23;20033;-83
2022/10/03 15:35:35;;;;;;;8.38;2.00;;;;;;;;;;6131119;23;20026;-82
2022/10/03 15:38:12;;;;;;;14.27;2.40;;;;;;;;;;6138865;23;20030;-82
2022/10/03 15:40:40;;;;;;;9.93;1.95;;;;;;;;;;6129600;23;20037;-82
2022/10/03 15:43:24;;;;;;;10.65;2.00;;;;;;;;;;6154195;23;20374;-82
2022/10/03 15:45:55;;;;;;;12.07;2.35;;;;;;;;;;6128823;23;20029;-84
2022/10/03 15:48:21;;;;;;;12.27;1.98;;;;;;;;;;6132117;23;20438;-85
2022/10/03 15:50:49;;;;;;;7.25;2.00;;;;;;;;;;6132163;23;20032;-83